»·PEaware :: SKW1187 KLAS-KSLC

SKW1187 :: KLAS-KSLC

FLIGHT INFORMATION

Flight Status: Arrived
Operator:
SkyWest Airlines
More flights by this operator :: More flights under this callsign
Pilot: Anonymous 12254 (12254)
Aircraft: CANADAIR CL-600 CRJ-200
(CRJ2)
More flights by this aircraft type
Origin: KLAS McCarran Intl
United States
Destination: KSLC Salt Lake City Intl
United States
More flights between these airports :: More routes between these airports
Route: TRALR9 MLF QWENN5
File this flight plan on PilotEdge
Remarks:
Altitude:
(Current/Filed)
27,000ft
Speed:
(Current/Filed)
420kts
Departed: 14-Jul-19 06:56 PM
Arrived: 14-Jul-19 08:07 PM
Distance/Time
Traveled:
320nm/1:11
Distance/Time
To Go:
Arrived

Flight Plot

Page will automatically refresh every two minutes.

Flight plan parsing failed; only flown route is shown


Map Options




Map Legend


Flown Route
Filed Route
Departure Airport
Arrival Airport
Navaid (VOR, NDB)
Fix

Horizontal Profiles

Position Reports

Time Latitude Longitude Heading Altitude Ground
Speed
14-Jul-19 18:36 36.082462 -115.151418 53 2106ft 0kts
14-Jul-19 18:37 36.082462 -115.151418 53 2106ft 0kts
14-Jul-19 18:38 36.082462 -115.151418 53 2106ft 0kts
14-Jul-19 18:40 36.082462 -115.151418 53 2106ft 0kts
14-Jul-19 18:41 36.082462 -115.151418 53 2106ft 0kts
14-Jul-19 18:42 36.082462 -115.151418 53 2106ft 0kts
14-Jul-19 18:43 36.082462 -115.151418 53 2106ft 0kts
14-Jul-19 18:44 36.082462 -115.151418 53 2106ft 0kts
14-Jul-19 18:45 36.082462 -115.151418 53 2106ft 0kts
14-Jul-19 18:46 36.082375 -115.151573 87 2106ft 3kts
14-Jul-19 18:47 36.082470 -115.151668 190 2107ft 0kts
14-Jul-19 18:48 36.082470 -115.151668 190 2107ft 0kts
14-Jul-19 18:49 36.082470 -115.151668 190 2107ft 0kts
14-Jul-19 18:50 36.082045 -115.151770 191 2108ft 10kts
14-Jul-19 18:51 36.080891 -115.152025 180 2111ft 0kts
14-Jul-19 18:52 36.080891 -115.152025 180 2111ft 0kts
14-Jul-19 18:53 36.080503 -115.152023 179 2112ft 0kts
14-Jul-19 18:54 36.079482 -115.152020 177 2114ft 7kts
14-Jul-19 18:55 36.078463 -115.146308 93 2096ft 29kts
14-Jul-19 18:56 36.078249 -115.132890 90 2055ft 47kts
14-Jul-19 18:57 36.078210 -115.122699 111 2033ft 1kts
14-Jul-19 18:58 36.076499 -115.121401 231 2036ft 16kts
14-Jul-19 18:59 36.076801 -115.169393 271 2753ft 222kts
14-Jul-19 19:00 36.070818 -115.251594 240 3852ft 255kts
14-Jul-19 19:00 36.019752 -115.281411 197 5483ft 249kts
14-Jul-19 19:02 35.947825 -115.291153 165 7428ft 243kts
14-Jul-19 19:02 35.893738 -115.271987 162 8677ft 246kts
14-Jul-19 19:03 35.867155 -115.200651 92 10235ft 255kts
14-Jul-19 19:04 35.865281 -115.112635 90 11883ft 258kts
14-Jul-19 19:05 35.883215 -115.029078 62 13454ft 258kts
14-Jul-19 19:06 35.917462 -114.951312 61 14939ft 257kts
14-Jul-19 19:07 35.952465 -114.871712 64 16455ft 271kts
14-Jul-19 19:08 35.985587 -114.786736 64 18128ft 278kts
14-Jul-19 19:09 36.019911 -114.697984 64 19350ft 300kts
14-Jul-19 19:10 36.056812 -114.602258 64 20676ft 317kts
14-Jul-19 19:11 36.095509 -114.501550 64 21994ft 331kts
14-Jul-19 19:12 36.135878 -114.396150 64 23317ft 345kts
14-Jul-19 19:13 36.178105 -114.285544 64 24644ft 363kts
14-Jul-19 19:14 36.222779 -114.170021 64 25965ft 379kts
14-Jul-19 19:15 36.268780 -114.051624 64 27061ft 376kts
14-Jul-19 19:16 36.314040 -113.934721 64 27073ft 377kts
14-Jul-19 19:17 36.359432 -113.817044 64 27073ft 378kts
14-Jul-19 19:18 36.404830 -113.698914 64 27073ft 379kts
14-Jul-19 19:19 36.475117 -113.609248 18 27086ft 377kts
14-Jul-19 19:20 36.576577 -113.575328 13 27073ft 379kts
14-Jul-19 19:21 36.679303 -113.544332 13 27073ft 379kts
14-Jul-19 19:22 36.782085 -113.513350 13 27073ft 380kts
14-Jul-19 19:23 36.884984 -113.482250 13 27073ft 381kts
14-Jul-19 19:24 36.988150 -113.450983 13 27073ft 382kts
14-Jul-19 19:25 37.091524 -113.419565 13 27073ft 382kts
14-Jul-19 19:26 37.194888 -113.388067 13 27073ft 383kts
14-Jul-19 19:27 37.298922 -113.356271 13 27073ft 384kts
14-Jul-19 19:28 37.402642 -113.324205 14 27073ft 384kts
14-Jul-19 19:29 37.506705 -113.290866 14 27073ft 384kts
14-Jul-19 19:30 37.610424 -113.257487 14 27073ft 385kts
14-Jul-19 19:31 37.714800 -113.223799 14 27073ft 385kts
14-Jul-19 19:32 37.818872 -113.190102 14 27073ft 386kts
14-Jul-19 19:33 37.923344 -113.156185 14 27073ft 386kts
14-Jul-19 19:34 38.027575 -113.122244 14 27073ft 386kts
14-Jul-19 19:35 38.131586 -113.088278 14 27073ft 387kts
14-Jul-19 19:36 38.236052 -113.054062 14 27073ft 387kts
14-Jul-19 19:37 38.340340 -113.019804 14 27073ft 387kts
14-Jul-19 19:38 38.440907 -112.970305 22 27073ft 387kts
14-Jul-19 19:39 38.540378 -112.917316 22 27073ft 388kts
14-Jul-19 19:40 38.639883 -112.864076 22 27073ft 388kts
14-Jul-19 19:41 38.739692 -112.810519 22 27073ft 388kts
14-Jul-19 19:42 38.839523 -112.756786 22 27073ft 389kts
14-Jul-19 19:43 38.939467 -112.702816 22 27073ft 389kts
14-Jul-19 19:44 39.039014 -112.648892 22 27073ft 389kts
14-Jul-19 19:45 39.137916 -112.595169 22 26792ft 381kts
14-Jul-19 19:46 39.233557 -112.543058 22 26275ft 366kts
14-Jul-19 19:47 39.326328 -112.491676 23 25583ft 360kts
14-Jul-19 19:48 39.417041 -112.439731 23 24881ft 355kts
14-Jul-19 19:49 39.507177 -112.387926 23 24111ft 353kts
14-Jul-19 19:50 39.597272 -112.335974 24 22714ft 356kts
14-Jul-19 19:51 39.688540 -112.283190 24 21311ft 358kts
14-Jul-19 19:52 39.780364 -112.229982 24 19476ft 365kts
14-Jul-19 19:53 39.873384 -112.175883 24 17488ft 369kts
14-Jul-19 19:54 39.967279 -112.121068 24 15487ft 369kts
14-Jul-19 19:55 40.057419 -112.066796 24 14519ft 342kts
14-Jul-19 19:56 40.143605 -112.014665 24 13011ft 340kts
14-Jul-19 19:57 40.229346 -111.962680 24 11506ft 337kts
14-Jul-19 19:58 40.316618 -111.936296 5 10964ft 303kts
14-Jul-19 19:59 40.394600 -111.930204 355 10965ft 257kts
14-Jul-19 20:00 40.460287 -111.933446 350 10969ft 216kts
14-Jul-19 20:01 40.525832 -111.943957 353 8914ft 266kts
14-Jul-19 20:02 40.599011 -111.953080 354 7769ft 267kts
14-Jul-19 20:03 40.669949 -111.960939 354 6297ft 243kts
14-Jul-19 20:04 40.731036 -111.968026 355 5083ft 197kts
14-Jul-19 20:05 40.779964 -111.973760 354 4229ft 148kts
14-Jul-19 20:06 40.792062 -111.975987 310 4221ft 0kts
14-Jul-19 20:07 40.792728 -111.979226 265 4218ft 14kts

Navigation Log

Ident Type
Flight plan parsing failed, navigation log unavailable